createdAt,value
2023-02-02T00:00:18.102Z,657.00
2023-02-02T00:01:18.127Z,660.00
2023-02-02T00:02:18.137Z,660.00
2023-02-02T00:03:18.155Z,666.00
2023-02-02T00:04:18.170Z,666.00
2023-02-02T00:05:18.175Z,664.00
2023-02-02T00:06:18.264Z,660.00
2023-02-02T00:07:18.231Z,660.00
2023-02-02T00:08:18.214Z,664.00
2023-02-02T00:09:18.229Z,657.00
2023-02-02T00:10:18.242Z,665.00
2023-02-02T00:11:18.258Z,663.00
2023-02-02T00:12:18.262Z,656.00
2023-02-02T00:13:18.283Z,654.00
2023-02-02T00:14:18.294Z,662.00
2023-02-02T00:15:18.307Z,657.00
2023-02-02T00:16:18.363Z,659.00
2023-02-02T00:17:18.345Z,663.00
2023-02-02T00:18:18.360Z,661.00
2023-02-02T00:19:18.367Z,660.00
2023-02-02T00:20:18.383Z,664.00
2023-02-02T00:21:18.402Z,659.00
2023-02-02T00:22:18.442Z,660.00
2023-02-02T00:23:18.435Z,661.00
2023-02-02T00:24:18.462Z,655.00
2023-02-02T00:25:18.449Z,659.00
2023-02-02T00:26:18.507Z,673.00
2023-02-02T00:27:18.474Z,659.00
2023-02-02T00:28:18.495Z,662.00
2023-02-02T00:29:18.501Z,659.00
2023-02-02T00:30:18.600Z,653.00
2023-02-02T00:31:18.618Z,656.00
2023-02-02T01:10:19.053Z,652.00
2023-02-02T01:11:19.051Z,648.00
2023-02-02T01:12:19.065Z,649.00
2023-02-02T01:13:19.080Z,651.00
2023-02-02T01:14:19.103Z,650.00
2023-02-02T01:15:19.120Z,652.00
2023-02-02T01:16:19.176Z,655.00
2023-02-02T01:17:19.143Z,645.00
2023-02-02T01:18:19.222Z,645.00
2023-02-02T01:19:19.179Z,649.00
2023-02-02T01:20:19.198Z,649.00
2023-02-02T01:21:19.220Z,652.00
2023-02-02T01:22:19.225Z,648.00
2023-02-02T01:23:19.290Z,652.00
2023-02-02T01:24:19.283Z,647.00
2023-02-02T01:25:20.258Z,647.00
2023-02-02T01:26:19.452Z,653.00
2023-02-02T01:27:19.301Z,652.00
2023-02-02T01:28:19.337Z,649.00
2023-02-02T01:29:19.354Z,653.00
2023-02-02T01:30:19.373Z,649.00
2023-02-02T01:31:19.480Z,647.00
2023-02-02T01:32:19.393Z,646.00
2023-02-02T01:33:19.399Z,650.00
2023-02-02T01:34:20.248Z,645.00
2023-02-02T01:35:19.436Z,643.00
2023-02-02T01:36:19.757Z,647.00
2023-02-02T01:37:19.488Z,646.00
2023-02-02T01:38:19.488Z,643.00
2023-02-02T01:39:19.498Z,641.00
2023-02-02T01:40:19.586Z,647.00
2023-02-02T01:41:19.538Z,651.00
2023-02-02T01:42:19.551Z,646.00
2023-02-02T01:43:19.563Z,650.00
2023-02-02T01:44:19.583Z,649.00
2023-02-02T01:45:19.601Z,647.00
2023-02-02T01:46:19.615Z,642.00
2023-02-02T01:47:19.636Z,643.00
2023-02-02T01:48:19.654Z,647.00
2023-02-02T01:49:19.688Z,643.00
2023-02-02T01:50:19.685Z,645.00
2023-02-02T01:51:19.704Z,646.00
2023-02-02T01:52:19.720Z,644.00
2023-02-02T01:53:19.796Z,651.00
2023-02-02T01:54:19.750Z,648.00
2023-02-02T01:55:19.772Z,648.00
2023-02-02T01:56:19.791Z,647.00
2023-02-02T01:57:19.813Z,649.00
2023-02-02T01:58:19.825Z,644.00
2023-02-02T01:59:19.849Z,644.00
2023-02-02T02:00:19.859Z,638.00
2023-02-02T02:01:20.003Z,646.00
2023-02-02T02:02:19.903Z,646.00
2023-02-02T02:03:19.907Z,646.00
2023-02-02T02:04:19.927Z,644.00
2023-02-02T02:05:19.950Z,643.00
2023-02-02T02:06:20.045Z,638.00
2023-02-02T02:07:19.976Z,642.00
2023-02-02T02:08:19.989Z,643.00
2023-02-02T02:09:20.009Z,643.00
2023-02-02T02:10:20.025Z,638.00
2023-02-02T02:11:20.039Z,639.00
2023-02-02T02:12:20.056Z,640.00
2023-02-02T02:13:20.071Z,641.00
2023-02-02T02:14:20.091Z,638.00
2023-02-02T02:15:20.100Z,644.00
2023-02-02T02:16:20.237Z,640.00
2023-02-02T02:17:20.812Z,639.00
2023-02-02T02:18:20.126Z,634.00
2023-02-02T02:19:20.152Z,640.00
2023-02-02T02:20:20.237Z,639.00
2023-02-02T02:21:20.188Z,644.00
2023-02-02T02:22:20.182Z,642.00
2023-02-02T02:23:20.190Z,641.00
2023-02-02T02:24:20.263Z,637.00
2023-02-02T02:25:20.225Z,641.00
2023-02-02T02:26:20.280Z,644.00
2023-02-02T02:27:20.259Z,639.00
2023-02-02T02:28:20.268Z,638.00
2023-02-02T02:29:20.287Z,643.00
2023-02-02T02:30:20.310Z,641.00
2023-02-02T02:31:20.381Z,640.00
2023-02-02T02:32:21.267Z,640.00
2023-02-02T02:33:20.425Z,636.00
2023-02-02T02:34:20.364Z,642.00
2023-02-02T02:35:20.393Z,641.00
2023-02-02T02:36:20.412Z,637.00
2023-02-02T02:37:20.407Z,636.00
2023-02-02T02:38:20.419Z,639.00
2023-02-02T02:39:20.434Z,639.00
2023-02-02T02:40:20.444Z,640.00
2023-02-02T02:41:20.460Z,638.00
2023-02-02T02:42:20.844Z,637.00
2023-02-02T02:43:20.484Z,644.00
2023-02-02T02:44:20.496Z,638.00
2023-02-02T02:45:20.509Z,643.00
2023-02-02T02:46:20.536Z,641.00
2023-02-02T02:47:20.529Z,638.00
2023-02-02T02:48:20.545Z,639.00
2023-02-02T02:49:20.557Z,641.00
2023-02-02T02:50:20.577Z,638.00
2023-02-02T02:51:20.592Z,637.00
2023-02-02T02:52:20.608Z,641.00
2023-02-02T02:53:20.698Z,637.00
2023-02-02T02:54:20.641Z,637.00
2023-02-02T02:55:20.683Z,636.00
2023-02-02T02:56:20.684Z,637.00
2023-02-02T02:57:20.698Z,637.00
2023-02-02T02:58:20.733Z,635.00
2023-02-02T02:59:20.731Z,639.00
2023-02-02T03:00:20.747Z,638.00
2023-02-02T03:01:20.779Z,641.00
2023-02-02T03:02:20.809Z,639.00
2023-02-02T03:03:20.797Z,630.00
2023-02-02T03:35:21.366Z,636.00
2023-02-02T03:36:21.383Z,637.00
2023-02-02T03:37:21.395Z,629.00
2023-02-02T03:38:21.421Z,636.00
2023-02-02T03:39:21.465Z,632.00
2023-02-02T03:40:21.467Z,633.00
2023-02-02T03:41:21.472Z,638.00
2023-02-02T03:42:21.491Z,627.00
2023-02-02T03:43:21.514Z,634.00
2023-02-02T03:44:21.521Z,629.00
2023-02-02T03:45:21.544Z,630.00
2023-02-02T03:46:22.400Z,637.00
2023-02-02T03:47:21.582Z,634.00
2023-02-02T03:48:21.618Z,635.00
2023-02-02T03:49:21.626Z,637.00
2023-02-02T03:50:21.707Z,633.00
2023-02-02T03:51:21.644Z,632.00
2023-02-02T03:52:21.660Z,627.00
2023-02-02T03:53:21.671Z,630.00
2023-02-02T03:54:21.803Z,628.00
2023-02-02T03:55:22.187Z,633.00
2023-02-02T03:56:21.735Z,628.00
2023-02-02T03:57:21.749Z,626.00
2023-02-02T03:58:21.784Z,626.00
2023-02-02T03:59:21.780Z,623.00
2023-02-02T04:00:21.811Z,624.00
2023-02-02T04:01:21.900Z,628.00
2023-02-02T04:02:21.822Z,624.00
2023-02-02T04:03:21.828Z,620.00
2023-02-02T04:04:21.827Z,621.00
2023-02-02T04:05:22.069Z,622.00
2023-02-02T04:06:21.840Z,625.00
2023-02-02T04:07:21.922Z,618.00
2023-02-02T04:08:21.868Z,618.00
2023-02-02T04:09:21.938Z,620.00
2023-02-02T04:10:21.932Z,616.00
2023-02-02T04:11:22.019Z,619.00
2023-02-02T04:12:22.006Z,618.00
2023-02-02T04:13:22.058Z,617.00
2023-02-02T04:14:22.105Z,619.00
2023-02-02T04:15:22.458Z,621.00
2023-02-02T04:16:22.247Z,622.00
2023-02-02T04:17:22.276Z,618.00
2023-02-02T04:18:22.340Z,616.00
2023-02-02T04:19:22.397Z,617.00
2023-02-02T04:20:22.439Z,620.00
2023-02-02T04:21:22.482Z,624.00
2023-02-02T04:22:22.525Z,614.00
2023-02-02T04:23:22.565Z,617.00
2023-02-02T04:24:22.609Z,613.00
2023-02-02T04:25:22.854Z,613.00
2023-02-02T04:26:22.737Z,620.00
2023-02-02T04:27:22.782Z,613.00
2023-02-02T04:28:22.833Z,611.00
2023-02-02T04:29:22.891Z,613.00
2023-02-02T04:30:22.963Z,619.00
2023-02-02T04:31:23.069Z,615.00
2023-02-02T04:32:23.093Z,616.00
2023-02-02T04:33:23.163Z,615.00
2023-02-02T04:34:23.233Z,614.00
2023-02-02T04:35:23.805Z,614.00
2023-02-02T04:36:23.389Z,618.00
2023-02-02T04:37:23.431Z,614.00
2023-02-02T04:38:23.500Z,608.00
2023-02-02T04:39:23.580Z,609.00
2023-02-02T04:40:23.636Z,615.00
2023-02-02T04:41:23.715Z,613.00
2023-02-02T04:42:23.791Z,613.00
2023-02-02T04:43:23.840Z,616.00
2023-02-02T04:44:23.906Z,609.00
2023-02-02T04:45:24.469Z,611.00
2023-02-02T04:46:24.022Z,610.00
2023-02-02T04:47:24.090Z,616.00
2023-02-02T04:48:24.155Z,604.00
2023-02-02T04:49:24.211Z,613.00
2023-02-02T04:50:24.262Z,614.00
2023-02-02T04:51:24.323Z,611.00
2023-02-02T04:52:24.390Z,609.00
2023-02-02T04:53:24.442Z,611.00
2023-02-02T04:54:24.539Z,610.00
2023-02-02T04:55:24.796Z,610.00
2023-02-02T04:56:24.610Z,609.00
2023-02-02T04:57:24.672Z,610.00
2023-02-02T04:58:24.730Z,602.00
2023-02-02T04:59:24.780Z,608.00
2023-02-02T05:00:24.831Z,610.00
2023-02-02T05:01:24.934Z,605.00
2023-02-02T05:02:24.949Z,610.00
2023-02-02T05:03:25.000Z,610.00
2023-02-02T05:04:25.072Z,614.00
2023-02-02T05:05:25.391Z,609.00
2023-02-02T05:06:25.140Z,610.00
2023-02-02T05:07:25.190Z,611.00
2023-02-02T05:08:25.241Z,613.00
2023-02-02T05:09:25.294Z,609.00
2023-02-02T05:10:25.352Z,610.00
2023-02-02T05:11:25.397Z,610.00
2023-02-02T05:12:25.477Z,610.00
2023-02-02T05:13:25.527Z,609.00
2023-02-02T05:14:25.571Z,607.00
2023-02-02T05:15:25.866Z,612.00
2023-02-02T05:16:28.691Z,615.00
2023-02-02T05:17:25.686Z,610.00
2023-02-02T05:18:25.757Z,613.00
2023-02-02T05:19:25.685Z,613.00
2023-02-02T05:20:25.685Z,612.00
2023-02-02T05:21:25.693Z,612.00
2023-02-02T05:22:25.669Z,609.00
2023-02-02T05:23:25.686Z,614.00
2023-02-02T05:24:25.669Z,610.00
2023-02-02T05:25:25.936Z,612.00
2023-02-02T05:26:25.909Z,606.00
2023-02-02T05:27:25.652Z,613.00
2023-02-02T05:28:25.646Z,609.00
2023-02-02T05:29:25.650Z,612.00
2023-02-02T05:30:25.633Z,613.00
2023-02-02T05:31:25.669Z,609.00
2023-02-02T05:32:25.624Z,611.00
2023-02-02T05:33:25.629Z,609.00
2023-02-02T05:34:25.621Z,615.00
2023-02-02T05:35:25.890Z,606.00
2023-02-02T05:36:25.616Z,606.00
2023-02-02T05:37:25.599Z,613.00
2023-02-02T05:38:25.599Z,613.00
2023-02-02T05:39:25.590Z,608.00
2023-02-02T05:40:25.583Z,612.00
2023-02-02T05:41:25.587Z,612.00
2023-02-02T05:42:25.586Z,609.00
2023-02-02T05:43:25.584Z,608.00
2023-02-02T05:44:25.573Z,607.00
2023-02-02T05:45:25.964Z,613.00
2023-02-02T05:46:25.564Z,614.00
2023-02-02T05:47:25.551Z,607.00
2023-02-02T05:48:25.846Z,610.00
2023-02-02T05:49:25.546Z,611.00
2023-02-02T05:50:25.554Z,612.00
2023-02-02T05:51:25.552Z,613.00
2023-02-02T05:52:25.613Z,618.00
2023-02-02T06:12:26.745Z,615.00
2023-02-02T06:14:26.829Z,610.00
2023-02-02T06:15:27.161Z,616.00
2023-02-02T06:16:26.949Z,617.00
2023-02-02T06:17:27.017Z,616.00
2023-02-02T06:18:27.073Z,621.00
2023-02-02T06:19:27.121Z,607.00
2023-02-02T06:20:27.179Z,615.00
2023-02-02T06:21:27.225Z,611.00
2023-02-02T06:22:27.304Z,628.00
2023-02-02T06:23:27.497Z,639.00
2023-02-02T06:24:27.387Z,634.00
2023-02-02T06:25:27.648Z,637.00
2023-02-02T06:26:27.583Z,641.00
2023-02-02T06:27:27.521Z,638.00
2023-02-02T06:28:28.359Z,639.00
2023-02-02T06:29:27.607Z,654.00
2023-02-02T06:30:27.637Z,653.00
2023-02-02T06:31:27.827Z,674.00
2023-02-02T06:32:27.739Z,662.00
2023-02-02T06:33:27.815Z,725.00
2023-02-02T06:34:27.865Z,764.00
2023-02-02T06:35:27.934Z,769.00
2023-02-02T06:36:27.951Z,762.00
2023-02-02T06:37:30.587Z,785.00
2023-02-02T06:38:27.966Z,801.00
2023-02-02T06:39:27.972Z,863.00
2023-02-02T06:40:27.953Z,894.00
2023-02-02T06:41:27.954Z,932.00
2023-02-02T06:42:27.943Z,953.00
2023-02-02T06:43:27.941Z,968.00
2023-02-02T06:44:28.014Z,991.00
2023-02-02T06:45:27.934Z,1010.00
2023-02-02T06:46:27.953Z,1077.00
2023-02-02T06:47:27.919Z,1190.00
2023-02-02T06:48:27.924Z,1226.00
2023-02-02T06:53:27.869Z,1504.00
2023-02-02T07:12:27.667Z,1816.00
2023-02-02T07:13:27.670Z,1827.00
2023-02-02T07:14:27.676Z,1828.00
2023-02-02T07:15:28.368Z,1845.00
2023-02-02T07:16:27.639Z,1853.00
2023-02-02T07:18:27.618Z,1903.00
2023-02-02T07:19:27.612Z,1896.00
2023-02-02T07:20:28.370Z,1913.00
2023-02-02T07:21:27.598Z,1946.00
2023-02-02T07:22:27.581Z,1943.00
2023-02-02T07:23:27.570Z,1932.00
2023-02-02T07:24:27.556Z,1904.00
2023-02-02T07:25:28.350Z,1953.00
2023-02-02T07:26:27.541Z,1941.00
2023-02-02T07:27:27.527Z,1845.00
2023-02-02T07:28:27.523Z,1377.00
2023-02-02T07:29:27.519Z,1194.00
2023-02-02T07:30:27.530Z,1127.00
2023-02-02T07:31:27.582Z,1118.00
2023-02-02T07:32:27.506Z,1013.00
2023-02-02T07:33:27.507Z,915.00
2023-02-02T07:34:27.515Z,765.00
2023-02-02T07:35:27.521Z,665.00
2023-02-02T07:36:27.514Z,628.00
2023-02-02T07:37:27.521Z,616.00
2023-02-02T07:38:27.530Z,583.00
2023-02-02T07:39:27.538Z,566.00
2023-02-02T07:40:27.627Z,583.00
2023-02-02T07:41:27.608Z,582.00
2023-02-02T07:42:27.627Z,551.00
2023-02-02T07:43:27.660Z,558.00
2023-02-02T07:44:27.679Z,527.00
2023-02-02T07:45:28.295Z,588.00
2023-02-02T07:46:27.754Z,772.00
2023-02-02T07:47:27.729Z,867.00
2023-02-02T07:48:27.773Z,866.00
2023-02-02T07:49:27.815Z,875.00
2023-02-02T07:50:27.918Z,886.00
2023-02-02T07:51:27.923Z,915.00
2023-02-02T07:52:27.995Z,932.00
2023-02-02T07:53:28.115Z,926.00
2023-02-02T07:54:28.086Z,920.00
2023-02-02T07:55:28.521Z,927.00
2023-02-02T07:56:28.125Z,937.00
2023-02-02T07:57:28.139Z,950.00
2023-02-02T07:58:28.149Z,966.00
2023-02-02T07:59:28.526Z,963.00
2023-02-02T08:00:28.362Z,986.00
2023-02-02T08:01:28.312Z,1001.00
2023-02-02T08:02:28.929Z,1024.00
2023-02-02T08:03:28.371Z,1029.00
2023-02-02T08:04:28.493Z,1039.00
2023-02-02T08:05:28.532Z,1068.00
2023-02-02T08:06:28.541Z,1083.00
2023-02-02T08:07:28.549Z,1108.00
2023-02-02T08:08:28.590Z,1117.00
2023-02-02T08:09:28.625Z,1126.00
2023-02-02T08:10:28.665Z,1156.00
2023-02-02T08:11:28.700Z,1166.00
2023-02-02T08:12:28.718Z,1168.00
2023-02-02T08:13:28.736Z,1175.00
2023-02-02T08:14:28.750Z,1193.00
2023-02-02T08:15:29.391Z,1208.00
2023-02-02T08:16:28.848Z,1218.00
2023-02-02T08:17:28.793Z,1229.00
2023-02-02T08:18:28.839Z,1240.00
2023-02-02T08:19:28.814Z,1252.00
2023-02-02T08:20:28.847Z,1268.00
2023-02-02T08:21:28.914Z,1262.00
2023-02-02T08:22:28.858Z,1281.00
2023-02-02T08:23:28.870Z,1298.00
2023-02-02T08:24:29.434Z,1300.00
2023-02-02T08:25:28.903Z,1321.00
2023-02-02T08:26:28.964Z,1321.00
2023-02-02T08:27:28.894Z,1334.00
2023-02-02T08:28:28.898Z,1335.00
2023-02-02T08:29:28.895Z,1341.00
2023-02-02T08:30:28.907Z,1344.00
2023-02-02T08:31:28.928Z,1358.00
2023-02-02T08:32:28.867Z,1377.00
2023-02-02T08:33:28.853Z,1374.00
2023-02-02T08:34:28.905Z,1387.00
2023-02-02T08:35:28.950Z,1386.00
2023-02-02T08:36:28.870Z,1400.00
2023-02-02T08:37:28.910Z,1436.00
2023-02-02T08:38:28.919Z,1455.00
2023-02-02T08:39:28.903Z,1461.00
2023-02-02T08:40:28.931Z,1470.00
2023-02-02T08:41:28.925Z,1476.00
2023-02-02T08:42:28.967Z,1485.00
2023-02-02T08:43:28.960Z,1498.00
2023-02-02T08:44:45.590Z,1500.00
2023-02-02T08:46:13.494Z,1502.00
2023-02-02T08:46:30.047Z,1502.00
2023-02-02T08:47:28.943Z,1512.00
2023-02-02T08:48:28.915Z,1526.00
2023-02-02T08:49:28.904Z,1546.00
2023-02-02T08:50:28.873Z,1582.00
2023-02-02T08:51:28.861Z,1586.00
2023-02-02T08:52:29.429Z,1596.00
2023-02-02T08:53:28.833Z,1607.00
2023-02-02T08:54:28.826Z,1621.00
2023-02-02T08:55:28.867Z,1623.00
2023-02-02T08:56:28.805Z,1634.00
2023-02-02T08:57:28.785Z,1643.00
2023-02-02T08:58:28.780Z,1644.00
2023-02-02T08:59:28.759Z,1645.00
2023-02-02T09:00:28.751Z,1665.00
2023-02-02T09:01:28.806Z,1666.00
2023-02-02T09:02:28.770Z,1672.00
2023-02-02T09:03:31.405Z,1679.00
2023-02-02T09:04:28.720Z,1702.00
2023-02-02T09:05:28.722Z,1699.00
2023-02-02T09:06:28.751Z,1704.00
2023-02-02T09:07:28.701Z,1563.00
2023-02-02T09:08:28.676Z,1291.00
2023-02-02T09:09:28.623Z,962.00
2023-02-02T09:10:28.654Z,737.00
2023-02-02T09:11:28.636Z,624.00
2023-02-02T09:12:28.609Z,552.00
2023-02-02T09:13:28.616Z,528.00
2023-02-02T09:14:28.611Z,500.00
2023-02-02T12:43:34.487Z,1451.00
2023-02-02T12:51:34.474Z,1403.00
2023-02-02T12:52:34.547Z,1401.00
2023-02-02T12:53:34.599Z,1388.00
2023-02-02T12:54:44.936Z,1385.00
2023-02-02T12:55:35.637Z,1386.00
2023-02-02T12:56:34.624Z,1387.00
2023-02-02T12:57:34.615Z,1377.00
2023-02-02T12:58:34.637Z,1374.00
2023-02-02T12:59:34.605Z,1371.00
2023-02-02T13:00:34.605Z,1363.00
2023-02-02T13:01:34.593Z,1356.00
2023-02-02T13:02:34.646Z,1351.00
2023-02-02T13:03:34.589Z,1352.00
2023-02-02T13:04:34.586Z,1235.00
2023-02-02T13:05:34.572Z,1135.00
2023-02-02T13:06:34.561Z,1245.00
2023-02-02T13:07:34.578Z,1299.00
2023-02-02T13:08:34.600Z,961.00
2023-02-02T13:09:35.042Z,1023.00
2023-02-02T13:10:34.561Z,1032.00
2023-02-02T13:11:34.546Z,1005.00
2023-02-02T13:12:34.543Z,1001.00
2023-02-02T13:13:34.544Z,942.00
2023-02-02T13:14:34.581Z,793.00
2023-02-02T13:15:34.548Z,776.00
2023-02-02T13:16:34.658Z,798.00
2023-02-02T13:17:34.541Z,768.00
2023-02-02T13:18:34.540Z,740.00
2023-02-02T13:19:34.532Z,748.00
2023-02-02T13:20:34.543Z,743.00
2023-02-02T13:21:34.521Z,732.00
2023-02-02T13:22:34.528Z,723.00
2023-02-02T13:23:34.504Z,727.00
2023-02-02T13:24:34.510Z,734.00
2023-02-02T13:25:34.586Z,737.00
2023-02-02T13:26:34.711Z,733.00
2023-02-02T13:27:34.496Z,725.00
2023-02-02T13:28:34.491Z,709.00
2023-02-02T13:29:34.492Z,698.00
2023-02-02T13:30:35.574Z,700.00
2023-02-02T13:31:35.207Z,697.00
2023-02-02T13:32:34.479Z,689.00
2023-02-02T13:33:34.475Z,688.00
2023-02-02T13:34:34.533Z,691.00
2023-02-02T13:35:34.479Z,682.00
2023-02-02T13:36:34.460Z,680.00
2023-02-02T13:37:34.460Z,670.00
2023-02-02T13:38:34.518Z,675.00
2023-02-02T13:58:34.324Z,656.00
2023-02-02T13:59:34.315Z,657.00
2023-02-02T14:00:35.019Z,657.00
2023-02-02T14:01:34.581Z,654.00
2023-02-02T14:02:34.293Z,653.00
2023-02-02T14:03:34.940Z,655.00
2023-02-02T14:05:34.272Z,655.00
2023-02-02T14:06:34.355Z,657.00
2023-02-02T14:07:34.250Z,652.00
2023-02-02T16:56:37.482Z,595.00
2023-02-02T19:12:43.386Z,568.00
2023-02-02T19:13:43.441Z,564.00
2023-02-02T19:14:43.507Z,566.00
2023-02-02T19:15:43.630Z,564.00
2023-02-02T19:16:43.639Z,563.00
2023-02-02T19:17:43.698Z,563.00
2023-02-02T19:18:43.770Z,567.00
2023-02-02T19:19:43.842Z,564.00
2023-02-02T19:20:43.891Z,565.00
2023-02-02T19:21:44.035Z,567.00
2023-02-02T19:22:44.021Z,564.00
2023-02-02T19:23:44.087Z,563.00
2023-02-02T19:24:44.149Z,564.00
2023-02-02T19:25:46.265Z,562.00
2023-02-02T21:57:53.389Z,509.00
2023-02-02T21:58:53.460Z,509.00
2023-02-02T21:59:53.516Z,506.00
2023-02-02T22:00:53.580Z,510.00
2023-02-02T22:01:53.654Z,507.00
2023-02-02T22:02:53.724Z,510.00
2023-02-02T22:03:53.734Z,507.00
2023-02-02T22:04:53.762Z,509.00
2023-02-02T22:05:53.851Z,508.00
